sensor_id;sensor_type;location;lat;lon;timestamp;P1;durP1;ratioP1;P2;durP2;ratioP2
815;SDS011;25928;51.062;13.752;2022-09-03T00:01:24;1.93;;;1.83;;
815;SDS011;25928;51.062;13.752;2022-09-03T00:04:00;2.30;;;1.70;;
815;SDS011;25928;51.062;13.752;2022-09-03T00:06:34;1.57;;;1.40;;
815;SDS011;25928;51.062;13.752;2022-09-03T00:11:44;2.67;;;1.97;;
815;SDS011;25928;51.062;13.752;2022-09-03T00:14:18;1.83;;;1.63;;
815;SDS011;25928;51.062;13.752;2022-09-03T00:17:04;2.83;;;2.53;;
815;SDS011;25928;51.062;13.752;2022-09-03T00:19:41;4.33;;;2.00;;
815;SDS011;25928;51.062;13.752;2022-09-03T00:22:20;2.60;;;2.30;;
815;SDS011;25928;51.062;13.752;2022-09-03T00:24:51;4.53;;;1.97;;
815;SDS011;25928;51.062;13.752;2022-09-03T00:27:21;3.30;;;1.93;;
815;SDS011;25928;51.062;13.752;2022-09-03T00:29:51;3.03;;;1.87;;
815;SDS011;25928;51.062;13.752;2022-09-03T00:35:03;4.43;;;1.93;;
815;SDS011;25928;51.062;13.752;2022-09-03T00:37:34;3.37;;;2.00;;
815;SDS011;25928;51.062;13.752;2022-09-03T00:40:00;2.63;;;1.83;;
815;SDS011;25928;51.062;13.752;2022-09-03T00:42:35;5.10;;;2.00;;
815;SDS011;25928;51.062;13.752;2022-09-03T00:45:32;2.90;;;1.60;;
815;SDS011;25928;51.062;13.752;2022-09-03T00:48:15;3.57;;;1.90;;
815;SDS011;25928;51.062;13.752;2022-09-03T00:53:33;4.63;;;1.60;;
815;SDS011;25928;51.062;13.752;2022-09-03T00:56:07;4.20;;;2.00;;
815;SDS011;25928;51.062;13.752;2022-09-03T01:01:49;2.30;;;2.10;;
815;SDS011;25928;51.062;13.752;2022-09-03T01:13:05;2.87;;;2.00;;
815;SDS011;25928;51.062;13.752;2022-09-03T01:23:34;1.97;;;1.87;;
815;SDS011;25928;51.062;13.752;2022-09-03T01:26:26;1.93;;;1.73;;
815;SDS011;25928;51.062;13.752;2022-09-03T01:35:16;3.47;;;1.70;;
815;SDS011;25928;51.062;13.752;2022-09-03T01:44:18;2.90;;;2.20;;
815;SDS011;25928;51.062;13.752;2022-09-03T01:46:49;3.03;;;2.07;;
815;SDS011;25928;51.062;13.752;2022-09-03T01:49:30;2.20;;;2.00;;
815;SDS011;25928;51.062;13.752;2022-09-03T01:52:11;5.00;;;2.30;;
815;SDS011;25928;51.062;13.752;2022-09-03T01:55:27;4.07;;;2.27;;
815;SDS011;25928;51.062;13.752;2022-09-03T02:00:16;1.80;;;1.70;;
815;SDS011;25928;51.062;13.752;2022-09-03T02:02:44;3.73;;;2.30;;
815;SDS011;25928;51.062;13.752;2022-09-03T02:08:08;2.63;;;2.20;;
815;SDS011;25928;51.062;13.752;2022-09-03T02:10:51;3.20;;;1.70;;
815;SDS011;25928;51.062;13.752;2022-09-03T02:15:55;3.67;;;2.33;;
815;SDS011;25928;51.062;13.752;2022-09-03T02:18:26;2.30;;;1.80;;
815;SDS011;25928;51.062;13.752;2022-09-03T02:20:55;2.47;;;2.27;;
815;SDS011;25928;51.062;13.752;2022-09-03T02:23:23;2.73;;;2.10;;
815;SDS011;25928;51.062;13.752;2022-09-03T02:25:57;4.40;;;2.17;;
815;SDS011;25928;51.062;13.752;2022-09-03T02:28:25;2.37;;;2.17;;
815;SDS011;25928;51.062;13.752;2022-09-03T02:30:53;3.30;;;2.30;;
815;SDS011;25928;51.062;13.752;2022-09-03T02:33:18;4.87;;;2.50;;
815;SDS011;25928;51.062;13.752;2022-09-03T02:35:44;1.90;;;1.60;;
815;SDS011;25928;51.062;13.752;2022-09-03T02:38:15;3.10;;;2.30;;
815;SDS011;25928;51.062;13.752;2022-09-03T02:40:45;2.63;;;1.93;;
815;SDS011;25928;51.062;13.752;2022-09-03T02:43:13;2.40;;;2.20;;
815;SDS011;25928;51.062;13.752;2022-09-03T02:45:54;3.23;;;2.20;;
815;SDS011;25928;51.062;13.752;2022-09-03T02:48:25;2.80;;;2.50;;
815;SDS011;25928;51.062;13.752;2022-09-03T02:50:51;2.20;;;2.00;;
815;SDS011;25928;51.062;13.752;2022-09-03T02:53:17;2.30;;;1.97;;
815;SDS011;25928;51.062;13.752;2022-09-03T02:55:42;2.07;;;1.87;;
815;SDS011;25928;51.062;13.752;2022-09-03T02:58:08;2.27;;;2.07;;
815;SDS011;25928;51.062;13.752;2022-09-03T03:00:34;3.40;;;2.53;;
815;SDS011;25928;51.062;13.752;2022-09-03T03:03:01;3.27;;;2.40;;
815;SDS011;25928;51.062;13.752;2022-09-03T03:05:42;2.80;;;2.43;;
815;SDS011;25928;51.062;13.752;2022-09-03T03:08:11;2.07;;;1.80;;
815;SDS011;25928;51.062;13.752;2022-09-03T03:10:39;4.80;;;1.90;;
815;SDS011;25928;51.062;13.752;2022-09-03T03:13:07;2.67;;;2.47;;
815;SDS011;25928;51.062;13.752;2022-09-03T03:15:33;3.97;;;2.37;;
815;SDS011;25928;51.062;13.752;2022-09-03T03:17:59;4.33;;;2.03;;
815;SDS011;25928;51.062;13.752;2022-09-03T03:20:24;2.60;;;2.00;;
815;SDS011;25928;51.062;13.752;2022-09-03T03:22:50;2.60;;;2.00;;
815;SDS011;25928;51.062;13.752;2022-09-03T03:25:15;2.67;;;2.47;;
815;SDS011;25928;51.062;13.752;2022-09-03T03:27:41;2.33;;;2.13;;
815;SDS011;25928;51.062;13.752;2022-09-03T03:30:07;3.40;;;2.50;;
815;SDS011;25928;51.062;13.752;2022-09-03T03:32:34;2.77;;;2.47;;
815;SDS011;25928;51.062;13.752;2022-09-03T03:35:01;3.70;;;2.40;;
815;SDS011;25928;51.062;13.752;2022-09-03T03:37:26;3.37;;;2.17;;
815;SDS011;25928;51.062;13.752;2022-09-03T03:39:52;2.60;;;2.40;;
815;SDS011;25928;51.062;13.752;2022-09-03T03:42:17;2.90;;;1.90;;
815;SDS011;25928;51.062;13.752;2022-09-03T03:44:43;2.63;;;2.10;;
815;SDS011;25928;51.062;13.752;2022-09-03T03:47:09;3.20;;;2.30;;
815;SDS011;25928;51.062;13.752;2022-09-03T03:49:34;4.80;;;2.17;;
815;SDS011;25928;51.062;13.752;2022-09-03T03:52:00;2.03;;;1.80;;
815;SDS011;25928;51.062;13.752;2022-09-03T03:54:27;4.60;;;2.10;;
815;SDS011;25928;51.062;13.752;2022-09-03T03:56:52;4.20;;;2.30;;
815;SDS011;25928;51.062;13.752;2022-09-03T03:59:18;2.77;;;2.37;;
815;SDS011;25928;51.062;13.752;2022-09-03T04:01:43;3.27;;;2.43;;
815;SDS011;25928;51.062;13.752;2022-09-03T04:04:09;3.27;;;2.97;;
815;SDS011;25928;51.062;13.752;2022-09-03T04:06:34;2.40;;;1.90;;
815;SDS011;25928;51.062;13.752;2022-09-03T04:09:00;2.77;;;2.20;;
815;SDS011;25928;51.062;13.752;2022-09-03T04:11:26;2.77;;;2.57;;
815;SDS011;25928;51.062;13.752;2022-09-03T04:13:51;3.90;;;2.20;;
815;SDS011;25928;51.062;13.752;2022-09-03T04:16:18;2.80;;;2.60;;
815;SDS011;25928;51.062;13.752;2022-09-03T04:18:46;4.43;;;2.13;;
815;SDS011;25928;51.062;13.752;2022-09-03T04:21:14;3.60;;;2.30;;
815;SDS011;25928;51.062;13.752;2022-09-03T04:23:42;3.47;;;2.40;;
815;SDS011;25928;51.062;13.752;2022-09-03T04:26:11;2.60;;;2.33;;
815;SDS011;25928;51.062;13.752;2022-09-03T04:28:38;2.30;;;2.13;;
815;SDS011;25928;51.062;13.752;2022-09-03T04:31:08;6.40;;;3.10;;
815;SDS011;25928;51.062;13.752;2022-09-03T04:33:35;2.87;;;2.53;;
815;SDS011;25928;51.062;13.752;2022-09-03T04:36:10;2.63;;;1.90;;
815;SDS011;25928;51.062;13.752;2022-09-03T04:38:41;3.57;;;2.50;;
815;SDS011;25928;51.062;13.752;2022-09-03T04:43:34;3.00;;;2.80;;
815;SDS011;25928;51.062;13.752;2022-09-03T04:46:01;3.50;;;2.33;;
815;SDS011;25928;51.062;13.752;2022-09-03T04:48:29;3.87;;;2.40;;
815;SDS011;25928;51.062;13.752;2022-09-03T04:51:17;3.13;;;2.33;;
815;SDS011;25928;51.062;13.752;2022-09-03T04:53:44;3.83;;;2.37;;
815;SDS011;25928;51.062;13.752;2022-09-03T04:56:20;2.03;;;1.93;;
815;SDS011;25928;51.062;13.752;2022-09-03T04:58:48;2.60;;;2.40;;
815;SDS011;25928;51.062;13.752;2022-09-03T05:01:19;3.90;;;2.57;;
815;SDS011;25928;51.062;13.752;2022-09-03T05:03:46;2.80;;;2.60;;
815;SDS011;25928;51.062;13.752;2022-09-03T05:06:12;4.17;;;2.53;;
815;SDS011;25928;51.062;13.752;2022-09-03T05:08:38;3.07;;;2.77;;
815;SDS011;25928;51.062;13.752;2022-09-03T05:11:10;2.70;;;2.50;;
815;SDS011;25928;51.062;13.752;2022-09-03T05:13:35;3.50;;;2.53;;
815;SDS011;25928;51.062;13.752;2022-09-03T05:16:03;3.00;;;2.80;;
815;SDS011;25928;51.062;13.752;2022-09-03T05:18:36;3.20;;;2.53;;
815;SDS011;25928;51.062;13.752;2022-09-03T05:21:11;4.93;;;2.80;;
815;SDS011;25928;51.062;13.752;2022-09-03T05:23:43;2.83;;;2.60;;
815;SDS011;25928;51.062;13.752;2022-09-03T05:26:11;3.90;;;3.30;;
815;SDS011;25928;51.062;13.752;2022-09-03T05:28:39;3.10;;;2.20;;
815;SDS011;25928;51.062;13.752;2022-09-03T05:31:10;2.47;;;2.30;;
815;SDS011;25928;51.062;13.752;2022-09-03T05:33:38;4.83;;;3.00;;
815;SDS011;25928;51.062;13.752;2022-09-03T05:36:12;2.70;;;2.50;;
815;SDS011;25928;51.062;13.752;2022-09-03T05:38:40;2.97;;;2.70;;
815;SDS011;25928;51.062;13.752;2022-09-03T05:41:09;3.13;;;2.83;;
815;SDS011;25928;51.062;13.752;2022-09-03T05:43:37;2.63;;;2.40;;
815;SDS011;25928;51.062;13.752;2022-09-03T05:48:59;3.90;;;2.40;;
815;SDS011;25928;51.062;13.752;2022-09-03T05:51:26;5.03;;;3.00;;
815;SDS011;25928;51.062;13.752;2022-09-03T05:53:52;2.83;;;2.63;;
815;SDS011;25928;51.062;13.752;2022-09-03T05:56:20;3.80;;;2.60;;
815;SDS011;25928;51.062;13.752;2022-09-03T05:58:47;3.47;;;2.33;;
815;SDS011;25928;51.062;13.752;2022-09-03T06:01:37;4.63;;;2.60;;
815;SDS011;25928;51.062;13.752;2022-09-03T06:04:07;2.63;;;2.40;;
815;SDS011;25928;51.062;13.752;2022-09-03T06:06:38;3.07;;;2.73;;
815;SDS011;25928;51.062;13.752;2022-09-03T06:09:08;5.40;;;2.87;;
815;SDS011;25928;51.062;13.752;2022-09-03T06:11:35;4.73;;;3.47;;
815;SDS011;25928;51.062;13.752;2022-09-03T06:14:03;2.77;;;2.57;;
815;SDS011;25928;51.062;13.752;2022-09-03T06:16:31;3.10;;;2.80;;
815;SDS011;25928;51.062;13.752;2022-09-03T06:18:59;3.23;;;2.93;;
815;SDS011;25928;51.062;13.752;2022-09-03T06:21:24;2.93;;;2.73;;
815;SDS011;25928;51.062;13.752;2022-09-03T06:23:52;2.83;;;2.60;;
815;SDS011;25928;51.062;13.752;2022-09-03T06:26:20;4.10;;;2.83;;
815;SDS011;25928;51.062;13.752;2022-09-03T06:28:47;2.83;;;2.30;;
815;SDS011;25928;51.062;13.752;2022-09-03T06:31:14;3.30;;;2.50;;
815;SDS011;25928;51.062;13.752;2022-09-03T06:33:41;3.20;;;2.33;;
815;SDS011;25928;51.062;13.752;2022-09-03T06:38:41;3.20;;;2.50;;
815;SDS011;25928;51.062;13.752;2022-09-03T06:41:08;2.90;;;2.30;;
815;SDS011;25928;51.062;13.752;2022-09-03T06:43:40;3.90;;;2.40;;
815;SDS011;25928;51.062;13.752;2022-09-03T06:46:07;3.60;;;3.10;;
815;SDS011;25928;51.062;13.752;2022-09-03T06:48:36;2.87;;;2.10;;
815;SDS011;25928;51.062;13.752;2022-09-03T06:51:04;2.80;;;2.50;;
815;SDS011;25928;51.062;13.752;2022-09-03T06:53:37;4.30;;;2.30;;
815;SDS011;25928;51.062;13.752;2022-09-03T06:56:12;5.50;;;2.30;;
815;SDS011;25928;51.062;13.752;2022-09-03T06:58:43;2.83;;;2.40;;
815;SDS011;25928;51.062;13.752;2022-09-03T07:01:11;2.60;;;2.40;;
815;SDS011;25928;51.062;13.752;2022-09-03T07:03:42;2.10;;;1.90;;
815;SDS011;25928;51.062;13.752;2022-09-03T07:06:09;5.10;;;2.37;;
815;SDS011;25928;51.062;13.752;2022-09-03T07:08:37;2.53;;;2.27;;
815;SDS011;25928;51.062;13.752;2022-09-03T07:11:03;2.80;;;2.30;;
815;SDS011;25928;51.062;13.752;2022-09-03T07:13:39;3.13;;;2.83;;
815;SDS011;25928;51.062;13.752;2022-09-03T07:16:11;5.03;;;2.37;;
815;SDS011;25928;51.062;13.752;2022-09-03T07:18:41;4.30;;;2.17;;
815;SDS011;25928;51.062;13.752;2022-09-03T07:21:17;2.67;;;2.30;;
815;SDS011;25928;51.062;13.752;2022-09-03T07:23:44;7.40;;;2.73;;
815;SDS011;25928;51.062;13.752;2022-09-03T07:26:14;4.37;;;2.17;;
815;SDS011;25928;51.062;13.752;2022-09-03T07:28:42;2.23;;;2.03;;
815;SDS011;25928;51.062;13.752;2022-09-03T07:31:14;3.37;;;1.90;;
815;SDS011;25928;51.062;13.752;2022-09-03T07:33:43;2.57;;;2.10;;
815;SDS011;25928;51.062;13.752;2022-09-03T07:36:13;1.90;;;1.80;;
815;SDS011;25928;51.062;13.752;2022-09-03T07:38:40;2.67;;;2.47;;
815;SDS011;25928;51.062;13.752;2022-09-03T07:41:09;2.20;;;2.00;;
815;SDS011;25928;51.062;13.752;2022-09-03T07:43:36;2.20;;;1.80;;
815;SDS011;25928;51.062;13.752;2022-09-03T07:46:11;4.30;;;1.93;;
815;SDS011;25928;51.062;13.752;2022-09-03T07:48:39;2.10;;;1.90;;
815;SDS011;25928;51.062;13.752;2022-09-03T07:51:09;2.63;;;2.37;;
815;SDS011;25928;51.062;13.752;2022-09-03T07:53:34;4.37;;;2.07;;
815;SDS011;25928;51.062;13.752;2022-09-03T07:56:10;2.20;;;2.00;;
815;SDS011;25928;51.062;13.752;2022-09-03T07:58:36;4.73;;;2.00;;
815;SDS011;25928;51.062;13.752;2022-09-03T08:01:04;3.50;;;2.00;;
815;SDS011;25928;51.062;13.752;2022-09-03T08:03:37;5.80;;;1.90;;
815;SDS011;25928;51.062;13.752;2022-09-03T08:06:09;2.20;;;2.00;;
815;SDS011;25928;51.062;13.752;2022-09-03T08:08:35;2.03;;;1.83;;
815;SDS011;25928;51.062;13.752;2022-09-03T08:11:23;2.00;;;1.80;;
815;SDS011;25928;51.062;13.752;2022-09-03T08:16:25;2.83;;;1.93;;
815;SDS011;25928;51.062;13.752;2022-09-03T08:18:51;4.70;;;2.50;;
815;SDS011;25928;51.062;13.752;2022-09-03T08:21:18;3.63;;;2.10;;
815;SDS011;25928;51.062;13.752;2022-09-03T08:23:47;1.97;;;1.73;;
815;SDS011;25928;51.062;13.752;2022-09-03T08:26:15;2.60;;;2.10;;
815;SDS011;25928;51.062;13.752;2022-09-03T08:28:42;2.03;;;1.67;;
815;SDS011;25928;51.062;13.752;2022-09-03T08:31:09;2.53;;;2.03;;
815;SDS011;25928;51.062;13.752;2022-09-03T08:33:44;2.27;;;1.87;;
815;SDS011;25928;51.062;13.752;2022-09-03T08:36:13;4.00;;;2.23;;
815;SDS011;25928;51.062;13.752;2022-09-03T08:38:42;2.27;;;2.07;;
815;SDS011;25928;51.062;13.752;2022-09-03T08:49:20;3.07;;;1.90;;
815;SDS011;25928;51.062;13.752;2022-09-03T08:52:05;4.70;;;1.97;;
815;SDS011;25928;51.062;13.752;2022-09-03T08:54:41;4.67;;;1.93;;
815;SDS011;25928;51.062;13.752;2022-09-03T08:57:07;2.73;;;1.83;;
815;SDS011;25928;51.062;13.752;2022-09-03T08:59:34;5.20;;;1.87;;
815;SDS011;25928;51.062;13.752;2022-09-03T09:02:44;2.87;;;1.70;;
815;SDS011;25928;51.062;13.752;2022-09-03T09:05:11;3.50;;;1.80;;
815;SDS011;25928;51.062;13.752;2022-09-03T09:07:43;4.00;;;1.50;;
815;SDS011;25928;51.062;13.752;2022-09-03T09:13:04;3.30;;;2.30;;
815;SDS011;25928;51.062;13.752;2022-09-03T09:21:16;2.50;;;2.03;;
815;SDS011;25928;51.062;13.752;2022-09-03T09:23:48;2.20;;;1.80;;
815;SDS011;25928;51.062;13.752;2022-09-03T09:26:19;4.00;;;1.83;;
815;SDS011;25928;51.062;13.752;2022-09-03T09:28:46;3.17;;;2.77;;
815;SDS011;25928;51.062;13.752;2022-09-03T09:31:21;3.20;;;2.00;;
815;SDS011;25928;51.062;13.752;2022-09-03T09:33:47;4.93;;;1.90;;
815;SDS011;25928;51.062;13.752;2022-09-03T09:36:19;3.27;;;1.83;;
815;SDS011;25928;51.062;13.752;2022-09-03T09:38:47;1.77;;;1.60;;
815;SDS011;25928;51.062;13.752;2022-09-03T09:41:24;3.67;;;2.17;;
815;SDS011;25928;51.062;13.752;2022-09-03T09:44:00;3.27;;;1.70;;
815;SDS011;25928;51.062;13.752;2022-09-03T09:46:34;2.37;;;1.97;;
815;SDS011;25928;51.062;13.752;2022-09-03T09:49:01;7.73;;;1.70;;
815;SDS011;25928;51.062;13.752;2022-09-03T09:51:28;3.60;;;2.00;;
815;SDS011;25928;51.062;13.752;2022-09-03T09:54:02;2.13;;;1.80;;
815;SDS011;25928;51.062;13.752;2022-09-03T09:56:37;1.77;;;1.53;;
815;SDS011;25928;51.062;13.752;2022-09-03T09:59:06;3.57;;;1.90;;
815;SDS011;25928;51.062;13.752;2022-09-03T10:01:35;2.07;;;1.87;;
815;SDS011;25928;51.062;13.752;2022-09-03T10:04:13;3.50;;;2.50;;
815;SDS011;25928;51.062;13.752;2022-09-03T10:06:52;2.37;;;1.80;;
815;SDS011;25928;51.062;13.752;2022-09-03T10:09:27;2.40;;;1.87;;
815;SDS011;25928;51.062;13.752;2022-09-03T10:14:27;4.87;;;1.80;;
815;SDS011;25928;51.062;13.752;2022-09-03T10:16:59;3.40;;;2.10;;
815;SDS011;25928;51.062;13.752;2022-09-03T10:19:42;4.53;;;2.07;;
815;SDS011;25928;51.062;13.752;2022-09-03T10:22:44;2.57;;;1.97;;
815;SDS011;25928;51.062;13.752;2022-09-03T10:25:15;4.10;;;2.00;;
815;SDS011;25928;51.062;13.752;2022-09-03T10:27:44;2.23;;;1.77;;
815;SDS011;25928;51.062;13.752;2022-09-03T10:30:10;4.20;;;2.27;;
815;SDS011;25928;51.062;13.752;2022-09-03T10:35:25;2.07;;;1.70;;
815;SDS011;25928;51.062;13.752;2022-09-03T10:40:37;3.17;;;1.87;;
815;SDS011;25928;51.062;13.752;2022-09-03T10:50:58;3.83;;;1.90;;
815;SDS011;25928;51.062;13.752;2022-09-03T11:04:52;2.20;;;2.00;;
815;SDS011;25928;51.062;13.752;2022-09-03T11:07:34;2.23;;;1.87;;
815;SDS011;25928;51.062;13.752;2022-09-03T11:12:47;1.80;;;1.50;;
815;SDS011;25928;51.062;13.752;2022-09-03T11:17:57;2.47;;;2.27;;
815;SDS011;25928;51.062;13.752;2022-09-03T11:20:40;4.50;;;1.90;;
815;SDS011;25928;51.062;13.752;2022-09-03T11:23:07;2.77;;;1.90;;
815;SDS011;25928;51.062;13.752;2022-09-03T11:25:40;2.00;;;1.80;;
815;SDS011;25928;51.062;13.752;2022-09-03T11:33:58;2.03;;;1.70;;
815;SDS011;25928;51.062;13.752;2022-09-03T11:36:34;3.80;;;1.90;;
815;SDS011;25928;51.062;13.752;2022-09-03T11:42:29;2.10;;;1.90;;
815;SDS011;25928;51.062;13.752;2022-09-03T11:44:58;3.53;;;1.80;;
815;SDS011;25928;51.062;13.752;2022-09-03T11:47:38;2.70;;;2.03;;
815;SDS011;25928;51.062;13.752;2022-09-03T11:50:08;2.17;;;1.97;;
815;SDS011;25928;51.062;13.752;2022-09-03T11:52:45;4.87;;;2.50;;
815;SDS011;25928;51.062;13.752;2022-09-03T11:55:12;4.60;;;2.70;;
815;SDS011;25928;51.062;13.752;2022-09-03T11:57:54;2.93;;;2.40;;
815;SDS011;25928;51.062;13.752;2022-09-03T12:00:21;7.10;;;3.80;;
815;SDS011;25928;51.062;13.752;2022-09-03T12:03:00;3.60;;;2.30;;
815;SDS011;25928;51.062;13.752;2022-09-03T12:08:15;2.00;;;1.70;;
815;SDS011;25928;51.062;13.752;2022-09-03T12:14:16;5.17;;;3.50;;
815;SDS011;25928;51.062;13.752;2022-09-03T12:16:59;3.80;;;2.20;;
815;SDS011;25928;51.062;13.752;2022-09-03T12:22:22;2.90;;;1.57;;
815;SDS011;25928;51.062;13.752;2022-09-03T12:24:50;3.80;;;1.90;;
815;SDS011;25928;51.062;13.752;2022-09-03T12:27:23;2.60;;;1.70;;
815;SDS011;25928;51.062;13.752;2022-09-03T12:29:51;4.57;;;1.60;;
815;SDS011;25928;51.062;13.752;2022-09-03T12:32:23;4.70;;;1.77;;
815;SDS011;25928;51.062;13.752;2022-09-03T12:35:19;2.10;;;1.90;;
815;SDS011;25928;51.062;13.752;2022-09-03T12:37:47;1.90;;;1.50;;
815;SDS011;25928;51.062;13.752;2022-09-03T12:40:19;3.20;;;1.57;;
815;SDS011;25928;51.062;13.752;2022-09-03T12:42:47;2.33;;;2.13;;
815;SDS011;25928;51.062;13.752;2022-09-03T12:45:13;4.60;;;1.80;;
815;SDS011;25928;51.062;13.752;2022-09-03T12:47:42;3.00;;;1.90;;
815;SDS011;25928;51.062;13.752;2022-09-03T12:50:13;3.93;;;2.57;;
815;SDS011;25928;51.062;13.752;2022-09-03T12:52:40;2.33;;;1.80;;
815;SDS011;25928;51.062;13.752;2022-09-03T12:58:02;4.97;;;1.67;;
815;SDS011;25928;51.062;13.752;2022-09-03T13:00:36;3.13;;;1.77;;
815;SDS011;25928;51.062;13.752;2022-09-03T13:05:44;2.00;;;1.50;;
815;SDS011;25928;51.062;13.752;2022-09-03T13:08:30;1.77;;;1.40;;
815;SDS011;25928;51.062;13.752;2022-09-03T13:10:59;1.93;;;1.63;;
815;SDS011;25928;51.062;13.752;2022-09-03T13:13:32;2.93;;;1.67;;
815;SDS011;25928;51.062;13.752;2022-09-03T13:21:54;3.20;;;2.33;;
815;SDS011;25928;51.062;13.752;2022-09-03T13:32:35;2.93;;;2.00;;
815;SDS011;25928;51.062;13.752;2022-09-03T13:37:53;2.30;;;2.10;;
815;SDS011;25928;51.062;13.752;2022-09-03T13:40:31;4.40;;;1.90;;
815;SDS011;25928;51.062;13.752;2022-09-03T13:43:02;2.33;;;1.90;;
815;SDS011;25928;51.062;13.752;2022-09-03T13:45:36;2.43;;;1.97;;
815;SDS011;25928;51.062;13.752;2022-09-03T13:48:10;3.80;;;1.70;;
815;SDS011;25928;51.062;13.752;2022-09-03T13:51:02;2.13;;;1.77;;
815;SDS011;25928;51.062;13.752;2022-09-03T14:02:17;2.57;;;1.80;;
815;SDS011;25928;51.062;13.752;2022-09-03T14:05:09;2.23;;;1.53;;
815;SDS011;25928;51.062;13.752;2022-09-03T14:10:48;4.00;;;2.20;;
815;SDS011;25928;51.062;13.752;2022-09-03T14:16:37;1.93;;;1.70;;
815;SDS011;25928;51.062;13.752;2022-09-03T14:19:14;2.43;;;1.77;;
815;SDS011;25928;51.062;13.752;2022-09-03T14:21:52;2.20;;;2.00;;
815;SDS011;25928;51.062;13.752;2022-09-03T14:26:55;1.80;;;1.70;;
815;SDS011;25928;51.062;13.752;2022-09-03T14:29:26;2.73;;;2.00;;
815;SDS011;25928;51.062;13.752;2022-09-03T14:34:43;2.30;;;2.10;;
815;SDS011;25928;51.062;13.752;2022-09-03T14:40:29;1.97;;;1.80;;
815;SDS011;25928;51.062;13.752;2022-09-03T15:05:13;2.07;;;1.87;;
815;SDS011;25928;51.062;13.752;2022-09-03T15:08:00;3.70;;;2.10;;
815;SDS011;25928;51.062;13.752;2022-09-03T15:10:47;2.13;;;1.87;;
815;SDS011;25928;51.062;13.752;2022-09-03T15:13:20;3.20;;;1.93;;
815;SDS011;25928;51.062;13.752;2022-09-03T15:30:18;2.30;;;1.80;;
815;SDS011;25928;51.062;13.752;2022-09-03T15:35:59;2.60;;;1.60;;
815;SDS011;25928;51.062;13.752;2022-09-03T15:41:33;2.13;;;1.57;;
815;SDS011;25928;51.062;13.752;2022-09-03T15:44:51;2.50;;;1.70;;
815;SDS011;25928;51.062;13.752;2022-09-03T15:47:47;1.93;;;1.80;;
815;SDS011;25928;51.062;13.752;2022-09-03T15:53:11;3.17;;;2.07;;
815;SDS011;25928;51.062;13.752;2022-09-03T15:55:48;1.80;;;1.70;;
815;SDS011;25928;51.062;13.752;2022-09-03T15:58:47;2.50;;;1.50;;
815;SDS011;25928;51.062;13.752;2022-09-03T16:07:22;2.00;;;1.80;;
815;SDS011;25928;51.062;13.752;2022-09-03T16:15:24;3.43;;;2.30;;
815;SDS011;25928;51.062;13.752;2022-09-03T16:17:56;2.67;;;1.90;;
815;SDS011;25928;51.062;13.752;2022-09-03T16:26:36;5.17;;;2.30;;
815;SDS011;25928;51.062;13.752;2022-09-03T16:28:58;2.80;;;1.77;;
815;SDS011;25928;51.062;13.752;2022-09-03T16:34:05;2.10;;;1.80;;
815;SDS011;25928;51.062;13.752;2022-09-03T16:36:36;4.20;;;2.53;;
815;SDS011;25928;51.062;13.752;2022-09-03T16:39:20;2.60;;;2.20;;
815;SDS011;25928;51.062;13.752;2022-09-03T16:42:15;3.50;;;2.30;;
815;SDS011;25928;51.062;13.752;2022-09-03T16:44:58;1.80;;;1.70;;
815;SDS011;25928;51.062;13.752;2022-09-03T16:51:00;3.40;;;2.30;;
815;SDS011;25928;51.062;13.752;2022-09-03T16:56:40;2.27;;;2.00;;
815;SDS011;25928;51.062;13.752;2022-09-03T17:07:05;3.30;;;2.80;;
815;SDS011;25928;51.062;13.752;2022-09-03T17:12:37;3.00;;;2.70;;
815;SDS011;25928;51.062;13.752;2022-09-03T17:23:40;3.40;;;2.40;;
815;SDS011;25928;51.062;13.752;2022-09-03T17:26:45;3.40;;;2.37;;
815;SDS011;25928;51.062;13.752;2022-09-03T17:29:15;3.80;;;2.50;;
815;SDS011;25928;51.062;13.752;2022-09-03T17:31:58;2.77;;;2.57;;
815;SDS011;25928;51.062;13.752;2022-09-03T17:34:50;3.33;;;2.90;;
815;SDS011;25928;51.062;13.752;2022-09-03T17:45:35;4.77;;;2.80;;
815;SDS011;25928;51.062;13.752;2022-09-03T17:51:08;3.43;;;2.50;;
815;SDS011;25928;51.062;13.752;2022-09-03T17:53:52;3.07;;;2.77;;
815;SDS011;25928;51.062;13.752;2022-09-03T17:56:32;3.60;;;2.80;;
815;SDS011;25928;51.062;13.752;2022-09-03T17:59:11;4.10;;;2.37;;
815;SDS011;25928;51.062;13.752;2022-09-03T18:02:22;4.60;;;3.27;;
815;SDS011;25928;51.062;13.752;2022-09-03T18:04:48;3.77;;;3.33;;
815;SDS011;25928;51.062;13.752;2022-09-03T18:10:32;7.10;;;3.37;;
815;SDS011;25928;51.062;13.752;2022-09-03T18:17:25;6.13;;;3.60;;
815;SDS011;25928;51.062;13.752;2022-09-03T18:21:56;5.40;;;4.00;;
815;SDS011;25928;51.062;13.752;2022-09-03T18:24:48;3.50;;;3.20;;
815;SDS011;25928;51.062;13.752;2022-09-03T18:27:39;4.10;;;3.37;;
815;SDS011;25928;51.062;13.752;2022-09-03T18:30:28;4.63;;;4.20;;
815;SDS011;25928;51.062;13.752;2022-09-03T18:33:13;5.27;;;4.73;;
815;SDS011;25928;51.062;13.752;2022-09-03T18:36:01;5.60;;;4.93;;
815;SDS011;25928;51.062;13.752;2022-09-03T18:38:47;5.00;;;4.17;;
815;SDS011;25928;51.062;13.752;2022-09-03T18:41:41;5.27;;;3.77;;
815;SDS011;25928;51.062;13.752;2022-09-03T18:44:42;7.23;;;3.90;;
815;SDS011;25928;51.062;13.752;2022-09-03T18:57:23;5.07;;;4.57;;
815;SDS011;25928;51.062;13.752;2022-09-03T19:00:12;6.17;;;4.20;;
815;SDS011;25928;51.062;13.752;2022-09-03T19:08:58;6.00;;;5.07;;
815;SDS011;25928;51.062;13.752;2022-09-03T19:18:16;5.90;;;4.60;;
815;SDS011;25928;51.062;13.752;2022-09-03T19:21:27;5.50;;;5.00;;
815;SDS011;25928;51.062;13.752;2022-09-03T19:24:16;6.43;;;4.77;;
815;SDS011;25928;51.062;13.752;2022-09-03T19:30:15;5.20;;;4.67;;
815;SDS011;25928;51.062;13.752;2022-09-03T19:33:10;9.33;;;5.30;;
815;SDS011;25928;51.062;13.752;2022-09-03T19:47:59;5.37;;;4.70;;
815;SDS011;25928;51.062;13.752;2022-09-03T19:50:49;7.50;;;4.83;;
815;SDS011;25928;51.062;13.752;2022-09-03T19:54:08;6.97;;;5.13;;
815;SDS011;25928;51.062;13.752;2022-09-03T19:56:56;6.23;;;5.63;;
815;SDS011;25928;51.062;13.752;2022-09-03T19:59:41;7.63;;;5.77;;
815;SDS011;25928;51.062;13.752;2022-09-03T20:02:30;5.73;;;5.13;;
815;SDS011;25928;51.062;13.752;2022-09-03T20:05:15;5.90;;;5.10;;
815;SDS011;25928;51.062;13.752;2022-09-03T20:08:03;5.87;;;5.30;;
815;SDS011;25928;51.062;13.752;2022-09-03T20:10:48;6.17;;;5.10;;
815;SDS011;25928;51.062;13.752;2022-09-03T20:13:17;10.50;;;5.40;;
815;SDS011;25928;51.062;13.752;2022-09-03T20:18:46;8.03;;;5.23;;
815;SDS011;25928;51.062;13.752;2022-09-03T20:21:59;8.10;;;5.20;;
815;SDS011;25928;51.062;13.752;2022-09-03T20:30:07;5.50;;;4.90;;
815;SDS011;25928;51.062;13.752;2022-09-03T20:52:00;5.40;;;4.87;;
815;SDS011;25928;51.062;13.752;2022-09-03T20:54:35;7.63;;;5.80;;
815;SDS011;25928;51.062;13.752;2022-09-03T20:57:14;10.13;;;9.10;;
815;SDS011;25928;51.062;13.752;2022-09-03T21:00:25;5.90;;;5.50;;
815;SDS011;25928;51.062;13.752;2022-09-03T21:05:33;6.10;;;5.50;;
815;SDS011;25928;51.062;13.752;2022-09-03T21:08:07;6.57;;;5.27;;
815;SDS011;25928;51.062;13.752;2022-09-03T21:11:02;6.20;;;5.70;;
815;SDS011;25928;51.062;13.752;2022-09-03T21:16:32;6.87;;;6.10;;
815;SDS011;25928;51.062;13.752;2022-09-03T21:19:10;7.10;;;6.23;;
815;SDS011;25928;51.062;13.752;2022-09-03T21:21:57;6.13;;;5.57;;
815;SDS011;25928;51.062;13.752;2022-09-03T21:27:15;6.93;;;5.20;;
815;SDS011;25928;51.062;13.752;2022-09-03T21:32:49;7.33;;;6.37;;
815;SDS011;25928;51.062;13.752;2022-09-03T21:35:26;7.80;;;7.03;;
815;SDS011;25928;51.062;13.752;2022-09-03T21:37:57;10.47;;;6.57;;
815;SDS011;25928;51.062;13.752;2022-09-03T21:40:27;7.13;;;6.57;;
815;SDS011;25928;51.062;13.752;2022-09-03T21:45:41;7.67;;;6.97;;